createdAt,value
2022-10-04T00:02:31.592Z,2.57
2022-10-04T00:05:04.115Z,2.30
2022-10-04T00:07:35.969Z,2.65
2022-10-04T00:10:16.640Z,2.70
2022-10-04T00:12:49.497Z,2.97
2022-10-04T00:15:22.732Z,3.10
2022-10-04T00:18:06.717Z,2.30
2022-10-04T00:20:57.867Z,2.20
2022-10-04T00:23:41.121Z,2.03
2022-10-04T00:26:15.476Z,2.80
2022-10-04T00:28:45.384Z,3.23
2022-10-04T00:31:16.787Z,2.47
2022-10-04T00:33:46.677Z,2.07
2022-10-04T00:36:38.381Z,2.10
2022-10-04T00:39:16.969Z,2.20
2022-10-04T00:42:02.597Z,2.03
2022-10-04T00:44:38.825Z,2.60
2022-10-04T00:47:21.839Z,2.63
2022-10-04T00:49:55.988Z,2.17
2022-10-04T00:52:27.301Z,2.57
2022-10-04T00:54:58.923Z,2.10
2022-10-04T00:57:33.168Z,2.17
2022-10-04T01:00:04.596Z,2.30
2022-10-04T01:02:38.401Z,2.23
2022-10-04T01:05:10.597Z,2.33
2022-10-04T01:07:42.212Z,2.10
2022-10-04T01:10:15.263Z,2.43
2022-10-04T01:12:53.437Z,2.20
2022-10-04T01:15:30.049Z,2.23
2022-10-04T01:18:09.456Z,2.00
2022-10-04T01:20:40.325Z,2.10
2022-10-04T01:23:11.107Z,1.90
2022-10-04T01:25:48.210Z,2.47
2022-10-04T01:28:16.327Z,2.27
2022-10-04T01:30:44.842Z,1.90
2022-10-04T01:33:13.860Z,2.30
2022-10-04T01:35:41.949Z,1.93
2022-10-04T01:38:11.360Z,2.13
2022-10-04T01:40:45.381Z,1.90
2022-10-04T01:43:19.162Z,2.23
2022-10-04T01:45:51.131Z,2.13
2022-10-04T01:48:23.859Z,1.90
2022-10-04T01:50:58.291Z,1.93
2022-10-04T01:53:30.224Z,1.67
2022-10-04T01:56:06.485Z,2.13
2022-10-04T01:58:40.194Z,2.20
2022-10-04T02:01:13.194Z,1.97
2022-10-04T02:03:44.710Z,1.97
2022-10-04T02:06:15.219Z,1.63
2022-10-04T02:08:49.393Z,1.95
2022-10-04T02:11:20.226Z,2.17
2022-10-04T02:13:51.296Z,2.30
2022-10-04T02:16:20.232Z,1.87
2022-10-04T02:18:48.600Z,2.37
2022-10-04T02:21:17.533Z,1.90
2022-10-04T02:23:48.107Z,1.67
2022-10-04T02:26:15.988Z,1.80
2022-10-04T02:28:43.756Z,2.47
2022-10-04T02:31:29.854Z,2.00
2022-10-04T02:33:59.510Z,1.73
2022-10-04T02:36:29.383Z,1.80
2022-10-04T02:39:03.532Z,2.47
2022-10-04T02:41:34.249Z,1.90
2022-10-04T02:44:10.705Z,2.07
2022-10-04T02:46:46.747Z,2.05
2022-10-04T02:49:24.222Z,2.03
2022-10-04T02:51:55.369Z,2.00
2022-10-04T02:54:31.149Z,2.43
2022-10-04T02:57:00.752Z,1.67
2022-10-04T02:59:34.698Z,2.03
2022-10-04T03:02:03.520Z,2.27
2022-10-04T03:04:34.494Z,1.80
2022-10-04T03:07:05.967Z,2.30
2022-10-04T03:09:36.847Z,1.63
2022-10-04T03:12:06.730Z,1.93
2022-10-04T03:14:35.075Z,1.50
2022-10-04T03:17:04.828Z,1.80
2022-10-04T03:19:34.214Z,1.73
2022-10-04T03:22:05.135Z,1.97
2022-10-04T03:24:38.205Z,1.80
2022-10-04T03:27:09.768Z,2.53
2022-10-04T03:29:42.718Z,2.30
2022-10-04T03:32:14.378Z,2.30
2022-10-04T03:34:45.381Z,1.83
2022-10-04T03:37:17.293Z,1.90
2022-10-04T03:39:47.680Z,1.90
2022-10-04T03:42:17.501Z,1.70
2022-10-04T03:44:46.598Z,2.37
2022-10-04T03:47:18.407Z,2.07
2022-10-04T03:49:50.819Z,2.07
2022-10-04T03:52:22.977Z,2.30
2022-10-04T03:54:54.614Z,2.30
2022-10-04T03:57:22.747Z,2.20
2022-10-04T03:59:51.478Z,1.67
2022-10-04T04:02:30.446Z,2.23
2022-10-04T04:05:08.280Z,2.20
2022-10-04T04:07:39.736Z,2.33
2022-10-04T04:10:19.221Z,2.07
2022-10-04T04:12:52.506Z,1.50
2022-10-04T04:15:20.468Z,2.00
2022-10-04T04:17:52.248Z,1.80
2022-10-04T04:20:30.232Z,1.90
2022-10-04T04:23:05.500Z,2.43
2022-10-04T04:25:39.399Z,2.00
2022-10-04T04:28:18.944Z,1.87
2022-10-04T04:30:49.358Z,1.90
2022-10-04T04:33:24.756Z,1.87
2022-10-04T04:35:56.316Z,2.00
2022-10-04T04:38:25.837Z,2.30
2022-10-04T04:40:55.648Z,1.53
2022-10-04T04:43:26.312Z,1.80
2022-10-04T04:46:15.043Z,1.57
2022-10-04T04:48:45.177Z,1.63
2022-10-04T04:51:20.541Z,3.30
2022-10-04T04:53:49.351Z,1.90
2022-10-04T04:56:21.772Z,1.60
2022-10-04T04:58:51.774Z,1.60
2022-10-04T05:01:25.102Z,2.30
2022-10-04T05:04:03.347Z,3.47
2022-10-04T05:06:33.315Z,3.67
2022-10-04T05:09:01.867Z,3.63
2022-10-04T05:11:33.981Z,2.33
2022-10-04T05:14:06.070Z,2.23
2022-10-04T05:16:40.100Z,2.17
2022-10-04T05:19:14.590Z,2.30
2022-10-04T05:21:46.633Z,2.73
2022-10-04T05:24:22.437Z,2.30
2022-10-04T05:26:58.584Z,2.30
2022-10-04T05:29:29.197Z,2.37
2022-10-04T05:32:09.799Z,1.80
2022-10-04T05:34:41.028Z,2.60
2022-10-04T05:37:25.272Z,2.20
2022-10-04T05:40:05.635Z,2.17
2022-10-04T05:42:41.446Z,2.40
2022-10-04T05:45:18.610Z,2.27
2022-10-04T05:47:49.214Z,1.83
2022-10-04T05:50:20.629Z,2.27
2022-10-04T05:52:51.287Z,2.00
2022-10-04T05:55:27.299Z,2.50
2022-10-04T05:58:41.773Z,1.53
2022-10-04T06:01:28.310Z,2.57
2022-10-04T06:04:31.673Z,2.30
2022-10-04T06:07:24.729Z,3.00
2022-10-04T06:10:09.389Z,2.53
2022-10-04T06:12:56.129Z,2.73
2022-10-04T06:15:59.217Z,2.20
2022-10-04T06:19:00.498Z,2.47
2022-10-04T06:21:32.513Z,3.43
2022-10-04T06:24:17.553Z,3.30
2022-10-04T06:26:49.549Z,3.33
2022-10-04T06:29:20.993Z,2.70
2022-10-04T06:32:14.583Z,2.23
2022-10-04T06:35:23.812Z,3.27
2022-10-04T06:38:13.879Z,2.70
2022-10-04T06:41:20.526Z,3.33
2022-10-04T06:44:04.484Z,4.10
2022-10-04T06:46:38.929Z,2.83
2022-10-04T06:49:34.708Z,3.10
2022-10-04T06:52:24.918Z,2.83
2022-10-04T06:55:10.894Z,4.43
2022-10-04T06:58:02.464Z,3.90
2022-10-04T07:00:37.105Z,3.70
2022-10-04T07:03:12.702Z,3.47
2022-10-04T07:05:49.019Z,3.33
2022-10-04T07:08:31.439Z,3.33
2022-10-04T07:11:02.407Z,3.87
2022-10-04T07:13:41.936Z,2.60
2022-10-04T07:16:33.454Z,2.97
2022-10-04T07:19:14.340Z,2.60
2022-10-04T07:21:55.878Z,3.10
2022-10-04T07:24:28.165Z,2.53
2022-10-04T07:26:56.909Z,3.30
2022-10-04T07:29:28.515Z,3.30
2022-10-04T07:32:10.365Z,3.30
2022-10-04T07:34:44.181Z,2.50
2022-10-04T07:37:15.353Z,4.50
2022-10-04T07:39:50.382Z,4.32
2022-10-04T07:42:26.427Z,3.43
2022-10-04T07:45:05.823Z,3.70
2022-10-04T07:47:34.040Z,3.30
2022-10-04T07:50:13.336Z,3.60
2022-10-04T07:52:52.727Z,3.00
2022-10-04T07:55:28.566Z,3.80
2022-10-04T07:58:31.766Z,3.80
2022-10-04T08:01:02.971Z,3.70
2022-10-04T08:03:52.955Z,3.30
2022-10-04T08:06:27.595Z,3.10
2022-10-04T08:09:17.634Z,3.97
2022-10-04T08:11:55.087Z,4.00
2022-10-04T08:14:35.661Z,3.80
2022-10-04T08:17:23.183Z,3.80
2022-10-04T08:19:59.912Z,3.70
2022-10-04T08:22:38.382Z,3.97
2022-10-04T08:25:17.523Z,3.20
2022-10-04T08:28:12.629Z,3.90
2022-10-04T08:30:51.871Z,4.60
2022-10-04T08:33:30.702Z,4.40
2022-10-04T08:36:12.880Z,4.40
2022-10-04T08:38:47.677Z,3.60
2022-10-04T08:41:55.336Z,4.37
2022-10-04T08:44:57.649Z,4.47
2022-10-04T08:47:59.836Z,3.90
2022-10-04T08:50:55.301Z,2.80
2022-10-04T08:54:13.450Z,2.70
2022-10-04T08:56:59.425Z,4.10
2022-10-04T09:00:02.628Z,3.57
2022-10-04T09:02:54.094Z,3.37
2022-10-04T09:05:53.336Z,3.90
2022-10-04T09:09:02.371Z,3.77
2022-10-04T09:11:46.236Z,3.60
2022-10-04T09:14:31.676Z,3.37
2022-10-04T09:17:21.832Z,3.80
2022-10-04T09:20:14.054Z,3.50
2022-10-04T09:22:50.304Z,3.80
2022-10-04T09:25:31.019Z,3.40
2022-10-04T09:28:20.575Z,3.67
2022-10-04T09:31:07.849Z,4.00
2022-10-04T09:33:54.308Z,3.30
2022-10-04T09:36:52.489Z,4.17
2022-10-04T09:39:42.856Z,3.77
2022-10-04T09:42:40.471Z,3.80
2022-10-04T09:45:27.581Z,4.47
2022-10-04T09:48:15.782Z,3.90
2022-10-04T09:51:11.157Z,3.90
2022-10-04T09:53:52.881Z,3.90
2022-10-04T09:56:57.590Z,4.30
2022-10-04T09:59:59.144Z,4.63
2022-10-04T10:03:05.805Z,3.80
2022-10-04T10:06:07.460Z,4.37
2022-10-04T10:08:49.551Z,4.37
2022-10-04T10:11:47.752Z,3.83
2022-10-04T10:14:40.730Z,3.93
2022-10-04T10:17:17.683Z,3.07
2022-10-04T10:20:27.855Z,3.80
2022-10-04T10:23:26.399Z,3.47
2022-10-04T10:26:17.381Z,2.97
2022-10-04T10:29:07.097Z,2.90
2022-10-04T10:31:55.165Z,4.20
2022-10-04T10:35:07.151Z,3.33
2022-10-04T10:37:49.699Z,3.30
2022-10-04T10:40:32.930Z,3.43
2022-10-04T10:43:27.724Z,3.30
2022-10-04T10:46:23.478Z,3.07
2022-10-04T10:49:21.973Z,2.92
2022-10-04T10:52:10.977Z,2.90
2022-10-04T10:54:59.710Z,2.83
2022-10-04T10:57:52.329Z,2.47
2022-10-04T11:00:21.978Z,2.77
2022-10-04T11:03:23.721Z,3.20
2022-10-04T11:06:15.233Z,2.70
2022-10-04T11:09:21.907Z,3.00
2022-10-04T11:12:23.594Z,3.13
2022-10-04T11:15:25.858Z,2.63
2022-10-04T11:18:15.239Z,3.00
2022-10-04T11:21:13.209Z,2.57
2022-10-04T11:24:07.636Z,2.70
2022-10-04T11:27:10.890Z,2.70
2022-10-04T11:29:59.624Z,2.95
2022-10-04T11:32:54.860Z,3.50
2022-10-04T11:35:46.014Z,2.13
2022-10-04T11:38:32.053Z,2.57
2022-10-04T11:41:16.626Z,2.33
2022-10-04T11:44:15.804Z,3.00
2022-10-04T11:46:51.465Z,2.45
2022-10-04T11:49:37.060Z,2.47
2022-10-04T11:52:31.556Z,2.80
2022-10-04T11:55:24.173Z,2.10
2022-10-04T11:57:57.360Z,2.60
2022-10-04T12:00:26.862Z,3.17
2022-10-04T12:03:36.418Z,2.70
2022-10-04T12:06:18.214Z,3.53
2022-10-04T12:09:04.881Z,2.83
2022-10-04T12:12:10.275Z,2.60
2022-10-04T12:14:53.907Z,3.03
2022-10-04T12:17:51.394Z,2.90
2022-10-04T12:20:39.976Z,2.90
2022-10-04T12:23:31.012Z,2.70
2022-10-04T12:26:24.609Z,2.60
2022-10-04T12:29:10.026Z,2.57
2022-10-04T12:31:44.011Z,3.07
2022-10-04T12:34:24.021Z,4.00
2022-10-04T12:37:17.971Z,4.13
2022-10-04T12:40:04.187Z,3.17
2022-10-04T12:42:45.469Z,1.90
2022-10-04T12:45:29.778Z,2.20
2022-10-04T12:48:31.672Z,2.47
2022-10-04T12:51:13.461Z,2.70
2022-10-04T12:53:55.556Z,2.77
2022-10-04T12:56:45.860Z,2.60
2022-10-04T12:59:34.620Z,2.97
2022-10-04T13:02:13.989Z,2.20
2022-10-04T13:04:48.908Z,2.90
2022-10-04T13:07:31.840Z,2.10
2022-10-04T13:10:30.926Z,2.30
2022-10-04T13:13:29.316Z,2.63
2022-10-04T13:19:09.659Z,2.80
2022-10-04T13:22:07.434Z,2.13
2022-10-04T13:24:56.149Z,2.57
2022-10-04T13:27:34.689Z,2.67
2022-10-04T13:30:08.208Z,2.90
2022-10-04T13:32:45.341Z,2.57
2022-10-04T13:35:20.876Z,3.10
2022-10-04T13:38:07.015Z,2.80
2022-10-04T13:40:44.833Z,2.50
2022-10-04T13:43:49.473Z,2.93
2022-10-04T13:46:30.191Z,2.25
2022-10-04T13:49:17.195Z,2.43
2022-10-04T13:52:18.002Z,2.20
2022-10-04T13:55:13.512Z,2.20
2022-10-04T13:57:48.020Z,2.67
2022-10-04T14:00:34.826Z,2.63
2022-10-04T14:03:17.191Z,2.17
2022-10-04T14:06:22.796Z,2.17
2022-10-04T14:09:35.552Z,3.20
2022-10-04T14:12:46.425Z,2.80
2022-10-04T14:15:38.743Z,2.00
2022-10-04T14:19:04.089Z,2.43
2022-10-04T14:21:59.973Z,2.50
2022-10-04T14:25:01.386Z,2.40
2022-10-04T14:27:56.461Z,2.40
2022-10-04T14:30:32.838Z,2.27
2022-10-04T14:33:32.178Z,2.70
2022-10-04T14:36:21.383Z,2.07
2022-10-04T14:39:02.995Z,2.40
2022-10-04T14:41:59.525Z,2.87
2022-10-04T14:45:04.712Z,2.60
2022-10-04T14:48:03.212Z,2.40
2022-10-04T14:50:44.542Z,2.77
2022-10-04T14:53:22.261Z,2.60
2022-10-04T14:56:06.865Z,3.30
2022-10-04T14:58:47.576Z,2.70
2022-10-04T15:01:20.933Z,2.80
2022-10-04T15:04:08.881Z,3.20
2022-10-04T15:06:39.962Z,2.90
2022-10-04T15:09:46.487Z,3.07
2022-10-04T15:15:45.654Z,2.50
2022-10-04T15:18:27.997Z,2.40
2022-10-04T15:21:00.951Z,2.60
2022-10-04T15:23:35.815Z,2.87
2022-10-04T15:26:13.745Z,3.27
2022-10-04T15:29:02.673Z,2.57
2022-10-04T15:31:35.681Z,3.13
2022-10-04T15:34:07.795Z,2.50
2022-10-04T15:36:48.733Z,2.70
2022-10-04T15:39:42.804Z,2.63
2022-10-04T15:42:15.913Z,2.13
2022-10-04T15:44:59.429Z,3.07
2022-10-04T15:47:38.006Z,2.80
2022-10-04T15:50:23.481Z,2.83
2022-10-04T15:53:08.390Z,2.65
2022-10-04T15:56:12.240Z,2.83
2022-10-04T15:59:07.122Z,2.57
2022-10-04T16:01:55.261Z,2.80
2022-10-04T16:04:42.606Z,3.40
2022-10-04T16:07:32.153Z,2.90
2022-10-04T16:10:13.353Z,3.60
2022-10-04T16:13:06.870Z,3.67
2022-10-04T16:15:37.037Z,3.20
2022-10-04T16:18:27.327Z,2.77
2022-10-04T16:21:07.041Z,3.17
2022-10-04T16:23:36.398Z,3.13
2022-10-04T16:26:06.530Z,3.00
2022-10-04T16:28:58.229Z,2.80
2022-10-04T16:31:39.372Z,2.83
2022-10-04T16:34:23.868Z,3.17
2022-10-04T16:36:55.972Z,2.40
2022-10-04T16:39:54.836Z,3.00
2022-10-04T16:42:26.861Z,3.17
2022-10-04T16:44:59.030Z,3.97
2022-10-04T16:47:32.330Z,3.30
2022-10-04T16:50:04.780Z,4.63
2022-10-04T16:52:48.009Z,4.13
2022-10-04T16:55:39.239Z,5.40
2022-10-04T16:58:49.707Z,6.00
2022-10-04T17:02:11.179Z,6.83
2022-10-04T17:05:17.678Z,5.47
2022-10-04T17:08:04.748Z,5.35
2022-10-04T17:10:38.712Z,4.87
2022-10-04T17:13:23.244Z,4.27
2022-10-04T17:16:01.958Z,5.20
2022-10-04T17:18:36.771Z,5.80
2022-10-04T17:21:12.900Z,6.10
2022-10-04T17:24:09.011Z,5.67
2022-10-04T17:26:49.786Z,5.00
2022-10-04T17:29:37.876Z,4.30
2022-10-04T17:32:17.336Z,4.65
2022-10-04T17:34:57.293Z,5.53
2022-10-04T17:37:35.407Z,5.40
2022-10-04T17:40:44.515Z,4.90
2022-10-04T17:43:22.885Z,5.90
2022-10-04T17:46:01.615Z,5.07
2022-10-04T17:48:49.406Z,4.45
2022-10-04T17:52:01.018Z,5.87
2022-10-04T17:54:51.237Z,4.33
2022-10-04T17:57:25.340Z,3.50
2022-10-04T18:00:06.685Z,3.97
2022-10-04T18:02:47.463Z,4.23
2022-10-04T18:05:21.660Z,3.90
2022-10-04T18:07:57.830Z,4.00
2022-10-04T18:10:31.869Z,4.70
2022-10-04T18:13:03.367Z,4.33
2022-10-04T18:15:37.625Z,4.17
2022-10-04T18:18:16.109Z,3.50
2022-10-04T18:21:04.627Z,3.90
2022-10-04T18:23:35.893Z,4.07
2022-10-04T18:26:12.088Z,3.40
2022-10-04T18:28:40.012Z,3.30
2022-10-04T18:31:24.037Z,3.80
2022-10-04T18:33:53.962Z,3.57
2022-10-04T18:36:24.807Z,3.90
2022-10-04T18:39:04.443Z,3.80
2022-10-04T18:41:55.747Z,3.90
2022-10-04T18:44:28.814Z,4.90
2022-10-04T18:46:59.845Z,3.57
2022-10-04T18:49:30.547Z,4.43
2022-10-04T18:52:22.754Z,3.83
2022-10-04T18:55:01.931Z,4.10
2022-10-04T18:57:57.638Z,3.50
2022-10-04T19:00:44.246Z,3.67
2022-10-04T19:03:24.203Z,4.00
2022-10-04T19:06:00.523Z,3.23
2022-10-04T19:08:40.683Z,3.63
2022-10-04T19:11:13.713Z,4.00
2022-10-04T19:13:49.120Z,4.10
2022-10-04T19:16:35.165Z,3.70
2022-10-04T19:19:15.960Z,3.67
2022-10-04T19:21:50.502Z,4.33
2022-10-04T19:24:35.925Z,3.60
2022-10-04T19:27:06.260Z,3.70
2022-10-04T19:29:54.840Z,3.90
2022-10-04T19:32:32.671Z,3.50
2022-10-04T19:35:10.340Z,3.60
2022-10-04T19:37:50.105Z,4.20
2022-10-04T19:40:24.005Z,3.90
2022-10-04T19:43:03.624Z,3.90
2022-10-04T19:45:38.933Z,3.50
2022-10-04T19:48:23.356Z,3.13
2022-10-04T19:51:01.726Z,3.60
2022-10-04T19:53:36.930Z,3.23
2022-10-04T19:56:10.199Z,3.50
2022-10-04T19:58:41.990Z,3.53
2022-10-04T20:01:12.329Z,4.40
2022-10-04T20:03:40.122Z,3.80
2022-10-04T20:06:12.865Z,3.47
2022-10-04T20:08:55.731Z,3.90
2022-10-04T20:11:28.660Z,3.40
2022-10-04T20:14:33.656Z,3.37
2022-10-04T20:17:05.983Z,3.13
2022-10-04T20:19:39.569Z,3.53
2022-10-04T20:22:44.003Z,5.13
2022-10-04T20:25:13.032Z,3.13
2022-10-04T20:28:03.655Z,3.70
2022-10-04T20:30:52.281Z,3.77
2022-10-04T20:33:50.022Z,3.73
2022-10-04T20:36:54.973Z,2.97
2022-10-04T20:39:58.995Z,3.00
2022-10-04T20:42:39.224Z,3.13
2022-10-04T20:45:28.761Z,3.77
2022-10-04T20:47:58.094Z,2.70
2022-10-04T20:50:38.772Z,3.30
2022-10-04T20:53:13.637Z,2.93
2022-10-04T20:55:41.385Z,3.97
2022-10-04T20:58:28.403Z,3.50
2022-10-04T21:00:58.084Z,3.10
2022-10-04T21:03:25.942Z,2.90
2022-10-04T21:06:02.074Z,2.67
2022-10-04T21:08:30.703Z,2.72
2022-10-04T21:11:13.249Z,3.33
2022-10-04T21:13:51.917Z,3.07
2022-10-04T21:16:43.002Z,3.00
2022-10-04T21:19:50.610Z,2.90
2022-10-04T21:22:40.618Z,2.90
2022-10-04T21:25:32.845Z,2.63
2022-10-04T21:28:33.807Z,3.10
2022-10-04T21:31:05.629Z,2.60
2022-10-04T21:33:34.251Z,3.60
2022-10-04T21:36:01.937Z,3.00
2022-10-04T21:38:30.214Z,3.60
2022-10-04T21:40:57.979Z,2.53
2022-10-04T21:43:26.395Z,2.75
2022-10-04T21:45:54.231Z,3.43
2022-10-04T21:48:23.497Z,3.78
2022-10-04T21:50:52.864Z,3.23
2022-10-04T21:53:21.124Z,3.23
2022-10-04T21:55:48.917Z,3.10
2022-10-04T21:58:16.888Z,2.80
2022-10-04T22:00:44.566Z,3.07
2022-10-04T22:03:12.400Z,2.40
2022-10-04T22:05:41.376Z,3.00
2022-10-04T22:08:09.108Z,2.97
2022-10-04T22:10:36.799Z,3.50
2022-10-04T22:13:04.381Z,2.90
2022-10-04T22:15:31.987Z,2.93
2022-10-04T22:17:59.612Z,2.90
2022-10-04T22:20:27.608Z,2.70
2022-10-04T22:22:57.650Z,3.13
2022-10-04T22:25:27.177Z,2.80
2022-10-04T22:27:55.122Z,3.13
2022-10-04T22:30:26.831Z,3.15
2022-10-04T22:32:56.899Z,2.67
2022-10-04T22:35:24.535Z,2.70
2022-10-04T22:37:52.398Z,2.73
2022-10-04T22:40:23.604Z,2.40
2022-10-04T22:42:53.347Z,2.60
2022-10-04T22:45:23.668Z,2.20
2022-10-04T22:47:52.010Z,3.90
2022-10-04T22:50:30.185Z,3.00
2022-10-04T22:52:58.548Z,3.40
2022-10-04T22:55:27.516Z,3.03
2022-10-04T22:57:55.997Z,2.60
2022-10-04T23:00:23.590Z,2.60
2022-10-04T23:02:51.179Z,2.63
2022-10-04T23:05:20.556Z,2.43
2022-10-04T23:07:49.503Z,2.67
2022-10-04T23:10:18.897Z,2.40
2022-10-04T23:12:49.526Z,2.90
2022-10-04T23:15:20.294Z,2.60
2022-10-04T23:17:54.587Z,3.07
2022-10-04T23:20:23.403Z,2.73
2022-10-04T23:22:52.918Z,2.70
2022-10-04T23:25:23.657Z,2.47
2022-10-04T23:27:52.709Z,3.27
2022-10-04T23:30:22.584Z,3.03
2022-10-04T23:32:52.751Z,3.13
2022-10-04T23:35:23.477Z,3.40
2022-10-04T23:37:51.701Z,3.03
2022-10-04T23:40:22.118Z,3.13
2022-10-04T23:42:52.565Z,2.72
2022-10-04T23:45:22.061Z,2.70
2022-10-04T23:47:52.551Z,3.40
2022-10-04T23:50:26.629Z,3.27
2022-10-04T23:52:58.201Z,2.80
2022-10-04T23:55:30.020Z,2.67
2022-10-04T23:58:00.424Z,2.97
